Time;durP1;ratioP1;P1;durP2;ratioP2;P2;SDS_P1;SDS_P2;PMS_P1;PMS_P2;Temp;Humidity;BMP_temperature;BMP_pressure;BME280_temperature;BME280_humidity;BME280_pressure;Samples;Min_cycle;Max_cycle;Signal;HPM_P1;HPM_P2
2023/07/17 00:01:07;;;;;;;6.78;6.07;;;20.50;99.90;;;;;;5030765;28;20424;-78
2023/07/17 00:03:33;;;;;;;5.85;5.43;;;20.50;99.90;;;;;;5029459;28;20026;-78
2023/07/17 00:05:58;;;;;;;6.20;5.60;;;20.40;99.90;;;;;;5030720;28;20100;-78
2023/07/17 00:08:24;;;;;;;6.03;5.53;;;20.40;99.90;;;;;;5029510;28;20475;-78
2023/07/17 00:10:50;;;;;;;6.13;5.53;;;20.40;99.90;;;;;;5030566;28;20075;-78
2023/07/17 00:13:16;;;;;;;6.28;5.75;;;20.40;99.90;;;;;;5030707;28;20375;-78
2023/07/17 00:15:42;;;;;;;8.35;5.53;;;20.30;99.90;;;;;;5029416;28;20021;-80
2023/07/17 00:18:08;;;;;;;7.28;5.68;;;20.30;99.90;;;;;;5030535;28;20041;-79
2023/07/17 00:20:33;;;;;;;5.97;5.38;;;20.20;99.90;;;;;;5029370;28;20061;-79
2023/07/17 00:22:59;;;;;;;5.55;5.05;;;20.30;99.90;;;;;;5029333;28;20029;-79
2023/07/17 00:25:25;;;;;;;4.93;4.53;;;20.30;99.90;;;;;;5029279;28;20017;-79
2023/07/17 00:27:51;;;;;;;5.38;4.80;;;20.20;99.90;;;;;;5029207;28;20025;-80
2023/07/17 00:30:16;;;;;;;5.75;4.78;;;20.10;99.90;;;;;;5029211;28;20014;-79
2023/07/17 00:32:42;;;;;;;7.32;5.20;;;20.00;99.90;;;;;;5030440;28;20034;-79
2023/07/17 00:35:08;;;;;;;6.53;4.65;;;20.00;99.90;;;;;;5029090;28;20026;-80
2023/07/17 00:37:34;;;;;;;6.82;4.85;;;20.00;99.90;;;;;;5029017;28;20018;-80
2023/07/17 00:39:59;;;;;;;5.50;5.00;;;20.00;99.90;;;;;;5029137;28;20032;-78
2023/07/17 00:42:25;;;;;;;5.97;5.28;;;20.00;99.90;;;;;;5030261;28;20029;-79
2023/07/17 00:44:51;;;;;;;7.00;4.95;;;20.00;99.90;;;;;;5030236;28;20037;-79
2023/07/17 00:47:17;;;;;;;5.57;5.07;;;20.00;99.90;;;;;;5030365;28;20030;-79
2023/07/17 00:49:43;;;;;;;5.05;4.60;;;20.00;99.90;;;;;;5028960;28;20025;-79
2023/07/17 00:52:10;;;;;;;5.55;5.13;;;19.90;99.90;;;;;;5028927;28;20120;-79
2023/07/17 00:54:38;;;;;;;7.53;5.68;;;19.90;99.90;;;;;;5028773;28;20068;-79
2023/07/17 00:57:05;;;;;;;6.32;5.07;;;19.90;99.90;;;;;;5028966;28;20036;-79
2023/07/17 00:59:31;;;;;;;5.47;5.03;;;19.90;99.90;;;;;;5029922;28;20037;-79
2023/07/17 01:01:56;;;;;;;6.13;5.63;;;19.80;99.90;;;;;;5030084;28;20029;-79
2023/07/17 01:04:22;;;;;;;6.07;5.47;;;19.70;99.90;;;;;;5030055;28;20355;-79
2023/07/17 01:06:47;;;;;;;5.70;5.20;;;19.70;99.90;;;;;;5029945;28;20044;-79
2023/07/17 01:09:16;;;;;;;7.47;5.22;;;19.60;99.90;;;;;;5028726;28;20022;-79
2023/07/17 01:11:41;;;;;;;6.65;5.20;;;19.50;99.90;;;;;;5028731;28;20029;-79
2023/07/17 01:14:15;;;;;;;7.32;5.40;;;19.60;99.90;;;;;;5029546;28;20021;-79
2023/07/17 01:16:41;;;;;;;6.32;5.72;;;19.50;99.90;;;;;;5028635;28;20042;-79
2023/07/17 01:19:06;;;;;;;6.70;5.50;;;19.50;99.90;;;;;;5029831;28;20029;-78
2023/07/17 01:21:35;;;;;;;5.95;5.38;;;19.50;99.90;;;;;;5028625;28;20539;-78
2023/07/17 01:24:01;;;;;;;5.20;4.80;;;19.50;99.90;;;;;;5028527;28;20445;-78
2023/07/17 01:26:26;;;;;;;6.40;5.80;;;19.50;99.90;;;;;;5029818;28;20085;-78
2023/07/17 01:28:52;;;;;;;6.15;5.65;;;19.50;99.90;;;;;;5028355;28;20022;-78
2023/07/17 01:31:18;;;;;;;5.90;5.32;;;19.50;99.90;;;;;;5029754;28;20036;-78
2023/07/17 01:33:43;;;;;;;6.45;5.85;;;19.40;99.90;;;;;;5029667;28;20025;-78
2023/07/17 01:36:09;;;;;;;6.78;5.35;;;19.40;99.90;;;;;;5029602;28;20029;-78
2023/07/17 01:38:35;;;;;;;5.95;5.35;;;19.30;99.90;;;;;;5029437;28;20034;-78
2023/07/17 01:41:00;;;;;;;5.55;5.05;;;19.30;99.90;;;;;;5028452;28;20453;-78
2023/07/17 01:43:26;;;;;;;5.72;5.28;;;19.30;99.90;;;;;;5029482;28;20017;-78
2023/07/17 01:45:52;;;;;;;7.63;5.50;;;19.40;99.90;;;;;;5030352;28;20475;-78
2023/07/17 01:48:17;;;;;;;9.77;5.45;;;19.40;99.90;;;;;;5032971;28;20552;-78
2023/07/17 01:50:47;;;;;;;8.00;5.47;;;19.50;99.90;;;;;;5031645;28;20017;-78
2023/07/17 01:53:13;;;;;;;6.15;5.55;;;19.50;99.90;;;;;;5032816;28;20033;-79
2023/07/17 01:55:39;;;;;;;6.32;5.82;;;19.50;99.90;;;;;;5032608;28;20057;-79
2023/07/17 01:58:05;;;;;;;6.10;5.60;;;19.50;99.90;;;;;;5031297;28;20037;-79
2023/07/17 02:00:30;;;;;;;6.30;5.70;;;19.50;99.90;;;;;;5031388;28;20021;-79
2023/07/17 02:02:56;;;;;;;6.22;5.53;;;19.50;99.90;;;;;;5031471;28;20120;-79
2023/07/17 02:05:22;;;;;;;8.35;5.57;;;19.60;99.90;;;;;;5031396;28;20034;-79
2023/07/17 02:07:47;;;;;;;6.32;5.82;;;19.70;99.90;;;;;;5031329;28;20025;-79
2023/07/17 02:10:13;;;;;;;6.60;6.00;;;19.70;99.90;;;;;;5031366;28;20018;-78
2023/07/17 02:12:39;;;;;;;6.88;6.28;;;19.70;99.90;;;;;;5032493;28;20032;-77
2023/07/17 02:15:06;;;;;;;6.75;5.75;;;19.70;99.90;;;;;;5031263;28;20067;-77
2023/07/17 02:17:32;;;;;;;5.65;5.15;;;19.60;99.90;;;;;;5032352;28;20017;-78
2023/07/17 02:19:58;;;;;;;5.38;4.88;;;19.60;99.90;;;;;;5031167;28;20053;-79
2023/07/17 02:22:24;;;;;;;8.77;5.40;;;19.60;99.90;;;;;;5031130;28;20490;-78
2023/07/17 02:24:49;;;;;;;5.53;5.03;;;19.50;99.90;;;;;;5032295;28;20416;-78
2023/07/17 02:27:16;;;;;;;5.47;4.97;;;19.50;99.90;;;;;;5032464;28;20021;-78
2023/07/17 02:29:42;;;;;;;5.88;5.38;;;19.50;99.90;;;;;;5031037;28;20029;-78
2023/07/17 02:32:07;;;;;;;5.47;4.90;;;19.60;99.90;;;;;;5032237;28;20510;-78
2023/07/17 02:34:33;;;;;;;6.78;5.72;;;19.60;99.90;;;;;;5032042;28;20026;-79
2023/07/17 02:36:58;;;;;;;5.53;5.03;;;19.60;99.90;;;;;;5032114;28;20052;-78
2023/07/17 02:39:24;;;;;;;6.40;5.72;;;19.60;99.90;;;;;;5032156;28;20113;-78
2023/07/17 02:41:50;;;;;;;6.07;5.50;;;19.60;99.90;;;;;;5032086;28;20022;-79
2023/07/17 02:44:15;;;;;;;6.85;5.18;;;19.60;99.90;;;;;;5030479;28;20108;-78
2023/07/17 02:46:41;;;;;;;5.93;5.53;;;19.60;99.90;;;;;;5032045;28;20028;-78
2023/07/17 02:49:11;;;;;;;5.40;4.90;;;19.60;99.90;;;;;;5032134;28;20025;-78
2023/07/17 02:51:37;;;;;;;6.22;5.45;;;19.60;99.90;;;;;;5032047;28;20446;-78
2023/07/17 02:54:03;;;;;;;6.75;5.63;;;19.50;99.90;;;;;;5031709;28;20076;-79
2023/07/17 02:56:28;;;;;;;6.30;5.80;;;19.50;99.90;;;;;;5030384;28;20360;-78
2023/07/17 02:58:54;;;;;;;5.65;5.15;;;19.40;99.90;;;;;;5030645;28;20037;-78
2023/07/17 03:01:20;;;;;;;6.22;5.55;;;19.40;99.90;;;;;;5031943;28;20074;-78
2023/07/17 03:03:46;;;;;;;7.05;6.35;;;19.30;99.90;;;;;;5031842;28;20100;-78
2023/07/17 03:06:12;;;;;;;5.85;5.22;;;19.40;99.90;;;;;;5031684;28;20024;-78
2023/07/17 03:08:37;;;;;;;6.57;6.03;;;19.40;99.90;;;;;;5030207;28;20018;-78
2023/07/17 03:11:03;;;;;;;7.97;6.20;;;19.40;99.90;;;;;;5030308;28;20022;-78
2023/07/17 03:13:29;;;;;;;7.57;5.72;;;19.40;99.90;;;;;;5031609;28;20022;-78
2023/07/17 03:15:58;;;;;;;5.63;5.13;;;19.50;99.90;;;;;;5030164;28;20024;-78
2023/07/17 03:18:25;;;;;;;6.78;6.07;;;19.60;99.90;;;;;;5031444;28;20506;-78
2023/07/17 03:20:50;;;;;;;9.23;5.88;;;19.70;99.90;;;;;;5030151;28;20056;-78
2023/07/17 03:23:16;;;;;;;6.20;5.60;;;19.80;99.90;;;;;;5031519;28;20025;-78
2023/07/17 03:25:42;;;;;;;9.10;5.10;;;19.90;99.90;;;;;;5030205;28;20027;-78
2023/07/17 03:28:07;;;;;;;6.35;5.75;;;19.90;99.90;;;;;;5030226;28;20025;-79
2023/07/17 03:30:33;;;;;;;5.85;5.30;;;20.00;99.90;;;;;;5030002;28;20398;-78
2023/07/17 03:32:59;;;;;;;6.68;5.63;;;20.10;99.90;;;;;;5031363;28;20070;-78
2023/07/17 03:35:24;;;;;;;8.02;5.70;;;20.20;99.90;;;;;;5031206;28;20018;-79
2023/07/17 03:37:50;;;;;;;6.15;5.55;;;20.30;99.90;;;;;;5031026;28;20026;-79
2023/07/17 03:40:15;;;;;;;7.53;6.13;;;20.40;99.90;;;;;;5029908;28;20493;-79
2023/07/17 03:42:41;;;;;;;6.78;6.28;;;20.40;99.90;;;;;;5031113;28;20022;-79
2023/07/17 03:45:07;;;;;;;6.32;5.72;;;20.50;99.90;;;;;;5031408;28;20471;-79
2023/07/17 03:47:32;;;;;;;8.20;6.07;;;20.60;99.90;;;;;;5030998;28;20021;-79
2023/07/17 03:49:58;;;;;;;7.65;5.93;;;20.60;99.90;;;;;;5031050;28;20089;-79
2023/07/17 03:52:24;;;;;;;7.35;6.05;;;20.70;99.90;;;;;;5030883;28;20021;-79
2023/07/17 03:54:49;;;;;;;5.85;5.35;;;20.60;99.90;;;;;;5029694;28;20060;-79
2023/07/17 03:57:15;;;;;;;6.25;5.65;;;20.60;99.90;;;;;;5029770;28;20383;-79
2023/07/17 03:59:51;;;;;;;6.75;5.43;;;20.50;99.90;;;;;;5029559;28;20034;-79
2023/07/17 04:02:17;;;;;;;6.95;5.55;;;20.50;99.90;;;;;;5029615;28;20021;-78
2023/07/17 04:04:43;;;;;;;6.10;5.50;;;20.50;99.90;;;;;;5030883;28;20025;-78
2023/07/17 04:07:09;;;;;;;7.40;6.10;;;20.50;99.90;;;;;;5030780;28;20026;-79
2023/07/17 04:09:34;;;;;;;6.43;5.82;;;20.50;99.90;;;;;;5030416;28;20018;-79
2023/07/17 04:12:03;;;;;;;6.32;5.72;;;20.50;99.90;;;;;;5029533;28;20028;-80
2023/07/17 04:14:29;;;;;;;7.72;5.38;;;20.50;99.90;;;;;;5030621;28;20032;-80
2023/07/17 04:16:55;;;;;;;7.07;5.57;;;20.60;99.90;;;;;;5030654;28;20025;-80
2023/07/17 04:19:20;;;;;;;8.93;6.80;;;20.60;99.90;;;;;;5029282;28;20078;-79
2023/07/17 04:21:46;;;;;;;8.23;5.97;;;20.70;99.90;;;;;;5029383;28;20470;-79
2023/07/17 04:24:12;;;;;;;7.30;5.65;;;20.70;99.90;;;;;;5029245;28;20029;-79
2023/07/17 04:26:37;;;;;;;6.10;5.60;;;20.60;99.90;;;;;;5029274;28;20034;-79
2023/07/17 04:29:03;;;;;;;7.05;5.88;;;20.60;99.90;;;;;;5030457;28;20022;-79
2023/07/17 04:31:28;;;;;;;6.90;6.05;;;20.60;99.90;;;;;;5030411;28;20026;-80
2023/07/17 04:33:54;;;;;;;7.95;5.47;;;20.60;99.90;;;;;;5029067;28;20360;-79
2023/07/17 04:36:19;;;;;;;7.72;5.88;;;20.60;99.90;;;;;;5030386;28;20026;-79
2023/07/17 04:38:45;;;;;;;6.10;5.50;;;20.60;99.90;;;;;;5029110;28;20033;-79
2023/07/17 04:41:10;;;;;;;6.43;5.80;;;20.70;99.90;;;;;;5028982;28;20615;-80
2023/07/17 04:43:36;;;;;;;5.93;5.43;;;20.80;99.90;;;;;;5030209;28;20395;-79
2023/07/17 04:46:03;;;;;;;6.53;5.75;;;20.90;99.90;;;;;;5030294;28;20029;-79
2023/07/17 04:48:28;;;;;;;7.97;5.75;;;20.90;99.90;;;;;;5030320;28;20110;-79
2023/07/17 04:50:54;;;;;;;9.65;6.13;;;21.00;99.90;;;;;;5028970;28;20017;-80
2023/07/17 04:53:19;;;;;;;6.38;5.78;;;21.10;99.90;;;;;;5030225;28;20096;-80
2023/07/17 04:55:45;;;;;;;5.93;5.32;;;21.20;99.90;;;;;;5030172;28;20060;-80
2023/07/17 04:58:11;;;;;;;7.95;5.43;;;21.20;99.90;;;;;;5028720;28;20436;-80
2023/07/17 05:00:36;;;;;;;6.57;5.20;;;21.30;99.90;;;;;;5028807;28;20062;-80
2023/07/17 05:03:02;;;;;;;6.22;5.72;;;21.40;99.90;;;;;;5030076;28;20112;-80
2023/07/17 05:05:31;;;;;;;6.03;5.53;;;21.50;99.90;;;;;;5028702;28;20052;-80
2023/07/17 05:07:57;;;;;;;5.25;4.68;;;21.60;99.90;;;;;;5028696;28;20022;-80
2023/07/17 05:10:22;;;;;;;4.93;4.50;;;21.70;99.90;;;;;;5028581;28;20120;-80
2023/07/17 05:12:48;;;;;;;5.53;5.00;;;21.70;99.90;;;;;;5028674;28;20018;-80
2023/07/17 05:15:14;;;;;;;5.88;4.78;;;21.70;99.90;;;;;;5029880;28;20022;-80
2023/07/17 05:17:39;;;;;;;5.07;4.68;;;21.80;99.90;;;;;;5029784;28;20029;-80
2023/07/17 05:20:06;;;;;;;8.55;5.78;;;21.90;99.90;;;;;;5028498;28;20077;-79
2023/07/17 05:22:32;;;;;;;6.07;5.55;;;22.00;99.90;;;;;;5033021;28;20033;-80
2023/07/17 05:24:58;;;;;;;7.88;5.85;;;21.90;99.90;;;;;;5033216;28;20037;-80
2023/07/17 05:27:24;;;;;;;7.00;5.45;;;21.70;99.90;;;;;;5033292;28;20053;-80
2023/07/17 05:29:49;;;;;;;5.70;5.25;;;21.60;99.90;;;;;;5031898;28;20071;-80
2023/07/17 05:32:15;;;;;;;8.50;6.13;;;21.50;99.90;;;;;;5033304;28;20022;-79
2023/07/17 05:34:40;;;;;;;6.47;5.45;;;21.40;99.90;;;;;;5031775;28;20026;-79
2023/07/17 05:37:06;;;;;;;5.93;4.65;;;21.30;99.90;;;;;;5033226;28;20025;-79
2023/07/17 05:39:32;;;;;;;12.30;7.65;;;21.20;99.90;;;;;;5033002;28;20118;-79
2023/07/17 05:41:57;;;;;;;11.73;8.50;;;21.00;99.90;;;;;;5031718;28;20033;-80
2023/07/17 05:44:23;;;;;;;11.77;9.38;;;20.60;99.90;;;;;;5031664;28;20029;-82
2023/07/17 05:46:48;;;;;;;17.48;9.25;;;20.10;99.90;;;;;;5031903;28;20029;-81
2023/07/17 05:49:14;;;;;;;9.43;7.38;;;19.70;99.90;;;;;;5031497;28;20024;-79
2023/07/17 05:51:40;;;;;;;9.20;8.30;;;19.30;99.90;;;;;;5032829;28;20486;-79
2023/07/17 05:54:06;;;;;;;12.55;7.95;;;19.10;99.90;;;;;;5031289;28;20045;-79
2023/07/17 05:56:32;;;;;;;10.13;7.68;;;18.90;99.90;;;;;;5031529;28;20454;-79
2023/07/17 05:58:57;;;;;;;7.30;6.53;;;19.00;99.90;;;;;;5023014;28;20124;-79
2023/07/17 06:01:23;;;;;;;8.57;7.55;;;18.90;99.90;;;;;;5025554;28;20018;-79
2023/07/17 06:03:48;;;;;;;7.55;6.85;;;18.90;99.90;;;;;;5032282;28;20478;-80
2023/07/17 06:06:14;;;;;;;10.27;8.02;;;19.00;99.90;;;;;;5031265;28;20082;-81
2023/07/17 06:08:41;;;;;;;7.85;7.05;;;19.00;99.90;;;;;;5032374;28;20029;-81
2023/07/17 06:11:06;;;;;;;9.07;7.70;;;19.00;99.90;;;;;;5031149;28;20574;-79
2023/07/17 06:13:32;;;;;;;7.82;7.03;;;19.10;99.90;;;;;;5032235;28;20057;-80
2023/07/17 06:15:58;;;;;;;11.43;7.28;;;19.10;99.90;;;;;;5032352;28;20045;-81
2023/07/17 06:18:24;;;;;;;8.40;7.15;;;19.10;99.90;;;;;;5030860;28;20076;-79
2023/07/17 06:20:50;;;;;;;7.88;7.07;;;19.00;99.90;;;;;;5032109;28;20022;-81
2023/07/17 06:23:15;;;;;;;9.13;7.43;;;19.00;99.90;;;;;;5032181;28;20032;-81
2023/07/17 06:25:41;;;;;;;8.52;7.40;;;18.90;99.90;;;;;;5031009;28;20055;-81
2023/07/17 06:28:08;;;;;;;6.45;5.75;;;18.90;99.90;;;;;;5030809;28;20041;-80
2023/07/17 06:30:33;;;;;;;6.78;6.07;;;18.90;99.90;;;;;;5030682;28;20117;-81
2023/07/17 06:32:59;;;;;;;8.35;6.38;;;18.90;99.90;;;;;;5031924;28;20108;-80
2023/07/17 06:35:25;;;;;;;6.80;6.10;;;19.00;99.90;;;;;;5030503;28;20113;-80
2023/07/17 06:37:51;;;;;;;8.73;6.70;;;19.10;99.90;;;;;;5031911;28;20013;-79
2023/07/17 06:40:17;;;;;;;12.43;6.75;;;19.10;99.90;;;;;;5031931;28;20086;-80
2023/07/17 06:42:43;;;;;;;8.63;6.97;;;19.00;99.90;;;;;;5030692;28;20049;-81
2023/07/17 06:45:09;;;;;;;5.75;5.15;;;19.10;99.90;;;;;;5030458;28;20498;-81
2023/07/17 06:47:34;;;;;;;6.53;5.57;;;19.10;99.90;;;;;;5031864;28;20047;-81
2023/07/17 06:50:00;;;;;;;6.60;5.63;;;19.10;99.90;;;;;;5031735;28;20083;-81
2023/07/17 06:52:26;;;;;;;5.85;5.35;;;19.10;99.90;;;;;;5031825;28;20061;-82
2023/07/17 06:54:51;;;;;;;5.22;4.80;;;19.20;99.90;;;;;;5030331;28;20137;-82
2023/07/17 06:57:17;;;;;;;9.70;5.40;;;19.30;99.90;;;;;;5031667;28;20029;-82
2023/07/17 06:59:42;;;;;;;5.53;4.55;;;19.30;99.90;;;;;;5031605;28;20040;-81
2023/07/17 07:02:09;;;;;;;8.43;5.60;;;19.40;99.90;;;;;;5031628;28;20442;-81
2023/07/17 07:04:34;;;;;;;5.40;4.90;;;19.40;99.90;;;;;;5031581;28;20022;-81
2023/07/17 07:07:00;;;;;;;8.30;6.13;;;19.40;99.90;;;;;;5030247;28;20029;-82
2023/07/17 07:09:26;;;;;;;6.00;5.50;;;19.40;99.90;;;;;;5030099;28;20022;-81
2023/07/17 07:11:52;;;;;;;6.18;5.10;;;19.40;99.90;;;;;;5031561;28;20018;-81
2023/07/17 07:14:17;;;;;;;5.28;4.78;;;19.50;99.90;;;;;;5030047;28;20014;-80
2023/07/17 07:16:43;;;;;;;6.00;4.38;;;19.50;99.90;;;;;;5022503;28;20097;-80
2023/07/17 07:19:08;;;;;;;5.68;5.25;;;19.50;99.90;;;;;;5020082;28;20029;-79
2023/07/17 07:21:34;;;;;;;5.55;5.05;;;19.50;99.90;;;;;;5019998;28;20029;-80
2023/07/17 07:24:00;;;;;;;7.22;5.70;;;19.60;99.90;;;;;;5018593;28;20025;-79
2023/07/17 07:26:25;;;;;;;6.05;5.45;;;19.50;99.90;;;;;;5021799;28;20021;-79
2023/07/17 07:28:51;;;;;;;5.82;5.22;;;19.50;99.90;;;;;;5020733;28;20026;-79
2023/07/17 07:31:16;;;;;;;6.57;5.97;;;19.60;99.90;;;;;;5020090;28;20056;-81
2023/07/17 07:33:42;;;;;;;5.78;5.28;;;19.50;99.90;;;;;;5020429;28;20172;-81
2023/07/17 07:36:08;;;;;;;7.15;5.80;;;19.60;99.90;;;;;;5017915;28;20034;-82
2023/07/17 07:38:33;;;;;;;6.55;5.95;;;19.60;99.90;;;;;;5018870;28;20037;-79
2023/07/17 07:40:59;;;;;;;6.60;6.00;;;19.60;99.90;;;;;;5013983;28;20387;-79
2023/07/17 07:43:24;;;;;;;7.25;6.55;;;19.70;99.90;;;;;;5010503;28;20033;-80
2023/07/17 07:45:50;;;;;;;7.57;6.75;;;19.70;99.90;;;;;;5011118;28;20029;-79
2023/07/17 07:48:15;;;;;;;8.68;6.63;;;19.80;99.90;;;;;;5009327;28;20025;-80
2023/07/17 07:50:41;;;;;;;7.80;6.18;;;19.80;99.90;;;;;;5010613;28;20116;-79
2023/07/17 07:53:07;;;;;;;6.93;6.25;;;19.80;99.90;;;;;;5014961;28;20026;-79
2023/07/17 07:55:32;;;;;;;6.20;5.70;;;19.80;99.90;;;;;;5018621;28;20038;-79
2023/07/17 07:57:58;;;;;;;7.50;6.43;;;19.80;99.90;;;;;;5024858;28;20447;-79
2023/07/17 08:00:24;;;;;;;9.18;6.13;;;19.80;99.90;;;;;;5027730;28;20029;-79
2023/07/17 08:02:50;;;;;;;6.97;6.28;;;19.90;99.90;;;;;;5028773;28;20497;-79
2023/07/17 08:05:15;;;;;;;8.80;6.05;;;19.90;99.90;;;;;;5030575;28;20572;-79
2023/07/17 08:07:41;;;;;;;9.43;6.60;;;19.90;99.90;;;;;;5029376;28;20541;-79
2023/07/17 08:10:07;;;;;;;6.53;5.90;;;19.80;99.90;;;;;;5030513;28;20125;-79
2023/07/17 08:12:33;;;;;;;7.53;5.90;;;19.90;99.90;;;;;;5030485;28;20024;-79
2023/07/17 08:14:58;;;;;;;10.05;6.70;;;20.00;99.90;;;;;;5030435;28;20029;-79
2023/07/17 08:17:24;;;;;;;8.88;7.20;;;20.00;99.90;;;;;;5030487;28;20478;-78
2023/07/17 08:19:49;;;;;;;7.90;7.10;;;20.00;99.90;;;;;;5029009;28;20033;-79
2023/07/17 08:22:15;;;;;;;8.48;7.15;;;20.10;99.90;;;;;;5030474;28;20025;-79
2023/07/17 08:24:41;;;;;;;7.82;7.05;;;20.10;99.90;;;;;;5029098;28;20390;-80
2023/07/17 08:27:06;;;;;;;8.27;7.30;;;20.20;99.90;;;;;;5030360;28;20096;-79
2023/07/17 08:29:32;;;;;;;7.60;6.90;;;20.30;99.90;;;;;;5030227;28;20410;-80
2023/07/17 08:31:58;;;;;;;7.90;7.05;;;20.30;99.90;;;;;;5029045;28;20056;-79
2023/07/17 08:34:23;;;;;;;9.55;6.93;;;20.40;99.90;;;;;;5028950;28;20049;-80
2023/07/17 08:36:49;;;;;;;7.95;6.50;;;20.40;99.90;;;;;;5030239;28;20391;-80
2023/07/17 08:39:15;;;;;;;11.23;7.28;;;20.50;99.90;;;;;;5028847;28;20494;-80
2023/07/17 08:41:44;;;;;;;12.10;7.47;;;20.60;99.90;;;;;;5028922;28;20022;-79
2023/07/17 08:44:12;;;;;;;9.73;6.60;;;20.70;99.90;;;;;;5030086;28;20025;-79
2023/07/17 08:46:41;;;;;;;8.82;7.50;;;20.90;99.90;;;;;;5028733;28;20519;-79
2023/07/17 08:49:06;;;;;;;8.65;7.60;;;21.00;99.90;;;;;;5029169;28;20374;-79
2023/07/17 08:51:32;;;;;;;8.23;7.40;;;21.20;99.90;;;;;;5028906;28;20024;-79
2023/07/17 08:54:02;;;;;;;7.97;7.15;;;21.30;99.90;;;;;;5018431;28;20022;-79
2023/07/17 08:56:28;;;;;;;12.20;7.82;;;21.40;99.90;;;;;;5011214;28;20497;-79
2023/07/17 08:58:54;;;;;;;8.43;7.68;;;21.60;99.90;;;;;;4996130;28;20038;-80
2023/07/17 09:01:20;;;;;;;6.53;6.03;;;21.70;99.90;;;;;;5012520;28;20029;-80
2023/07/17 09:03:49;;;;;;;8.15;5.70;;;21.60;99.90;;;;;;5013839;28;20026;-79
2023/07/17 09:06:14;;;;;;;7.00;6.40;;;21.60;99.90;;;;;;5029074;28;20392;-80
2023/07/17 09:08:40;;;;;;;6.50;5.75;;;21.60;99.90;;;;;;5013364;28;20026;-79
2023/07/17 09:11:09;;;;;;;7.72;6.60;;;21.70;99.90;;;;;;5028807;28;20029;-79
2023/07/17 09:13:42;;;;;;;8.27;7.22;;;21.60;99.90;;;;;;5012245;28;20014;-81
2023/07/17 09:16:18;;;;;;;6.65;6.10;;;21.70;99.90;;;;;;5013569;28;20034;-80
2023/07/17 09:18:47;;;;;;;7.70;6.65;;;21.70;99.90;;;;;;5012218;28;20035;-80
2023/07/17 09:21:21;;;;;;;7.28;6.32;;;21.70;99.90;;;;;;5013481;28;20062;-81
2023/07/17 09:23:50;;;;;;;8.85;5.95;;;21.60;99.90;;;;;;5015577;28;20150;-78
2023/07/17 09:26:18;;;;;;;7.78;6.32;;;21.60;99.90;;;;;;5021552;28;20446;-79
2023/07/17 09:28:56;;;;;;;6.85;6.00;;;21.70;99.90;;;;;;5024289;28;20037;-79
2023/07/17 09:31:32;;;;;;;6.65;6.05;;;21.80;99.90;;;;;;5032330;28;20468;-81
2023/07/17 09:34:01;;;;;;;6.45;5.90;;;21.80;99.90;;;;;;5031837;28;20093;-79
2023/07/17 09:36:27;;;;;;;6.97;5.40;;;21.90;99.90;;;;;;5033107;28;20022;-79
2023/07/17 09:38:57;;;;;;;9.18;6.45;;;22.00;99.90;;;;;;5031547;28;20037;-79
2023/07/17 09:41:25;;;;;;;7.13;5.90;;;22.00;99.90;;;;;;5032927;28;20526;-79
2023/07/17 09:44:16;;;;;;;6.82;5.00;;;22.00;99.90;;;;;;5031584;28;20025;-80
2023/07/17 09:46:41;;;;;;;6.25;5.75;;;22.10;99.90;;;;;;5033065;28;20018;-81
2023/07/17 09:49:07;;;;;;;6.45;5.05;;;22.20;99.90;;;;;;5032885;28;20033;-79
2023/07/17 09:51:34;;;;;;;7.65;5.20;;;22.30;99.90;;;;;;5032870;28;20030;-79
2023/07/17 09:54:01;;;;;;;7.40;5.40;;;22.30;99.90;;;;;;5032878;28;20136;-79
2023/07/17 09:56:31;;;;;;;9.25;5.47;;;22.50;99.90;;;;;;5031523;28;20051;-80
2023/07/17 09:59:16;;;;;;;7.40;5.57;;;22.60;99.90;;;;;;5032521;28;20038;-79
2023/07/17 10:01:47;;;;;;;5.90;5.22;;;22.70;99.90;;;;;;5032777;28;20053;-80
2023/07/17 10:04:21;;;;;;;5.10;4.68;;;22.80;99.90;;;;;;5031335;28;20022;-81
2023/07/17 10:06:49;;;;;;;6.20;5.00;;;23.20;99.90;;;;;;5032001;28;20025;-80
2023/07/17 10:09:20;;;;;;;4.93;4.10;;;23.40;99.90;;;;;;5032660;28;20022;-79
2023/07/17 10:11:46;;;;;;;8.17;4.80;;;23.60;99.90;;;;;;5031282;28;20029;-81
2023/07/17 10:14:13;;;;;;;6.57;4.38;;;23.70;99.90;;;;;;5032723;28;20029;-78
2023/07/17 10:16:39;;;;;;;5.72;4.57;;;23.80;99.90;;;;;;5031245;28;20044;-79
2023/07/17 10:19:04;;;;;;;6.90;4.78;;;23.90;99.90;;;;;;5029689;28;20057;-79
2023/07/17 10:21:30;;;;;;;5.85;5.20;;;24.20;99.90;;;;;;5031521;28;20049;-80
2023/07/17 10:24:04;;;;;;;6.28;4.95;;;24.10;99.90;;;;;;5030510;28;20104;-79
2023/07/17 10:26:30;;;;;;;5.95;5.25;;;24.20;99.90;;;;;;5032180;28;20025;-79
2023/07/17 10:28:55;;;;;;;5.72;5.22;;;24.20;99.90;;;;;;5029374;28;20067;-79
2023/07/17 10:31:26;;;;;;;6.47;5.78;;;24.30;99.90;;;;;;5030880;28;20030;-78
2023/07/17 10:34:01;;;;;;;7.53;5.07;;;24.40;99.90;;;;;;5031048;28;20391;-78
2023/07/17 10:36:41;;;;;;;6.20;5.13;;;24.40;99.90;;;;;;5030687;28;20025;-78
2023/07/17 10:39:08;;;;;;;7.70;5.43;;;24.50;99.90;;;;;;5030545;28;20112;-78
2023/07/17 10:41:36;;;;;;;6.30;5.70;;;24.50;99.90;;;;;;5030423;28;20026;-78
2023/07/17 10:44:07;;;;;;;7.55;5.50;;;24.40;99.90;;;;;;5029184;28;20018;-78
2023/07/17 10:46:35;;;;;;;6.97;5.20;;;24.40;99.90;;;;;;5014001;28;20025;-78
2023/07/17 10:49:09;;;;;;;8.23;5.32;;;24.30;99.90;;;;;;5010653;28;20121;-78
2023/07/17 10:51:37;;;;;;;6.95;5.53;;;24.40;99.90;;;;;;5009598;28;20057;-78
2023/07/17 10:54:03;;;;;;;8.50;5.53;;;24.20;99.90;;;;;;5013950;28;20439;-78
2023/07/17 10:56:31;;;;;;;10.88;5.57;;;24.20;99.90;;;;;;5029802;28;20109;-79
2023/07/17 10:58:58;;;;;;;6.07;4.82;;;24.10;99.90;;;;;;5030679;28;20454;-79
2023/07/17 11:01:24;;;;;;;6.13;5.55;;;24.00;99.90;;;;;;5030523;28;20033;-78
2023/07/17 11:03:49;;;;;;;7.32;5.75;;;23.90;99.90;;;;;;5030157;28;20018;-77
2023/07/17 11:06:16;;;;;;;8.23;6.28;;;23.80;99.90;;;;;;5031528;28;20030;-78
2023/07/17 11:08:43;;;;;;;9.38;6.05;;;23.70;99.90;;;;;;5030378;28;20021;-78
2023/07/17 11:11:10;;;;;;;7.68;5.82;;;23.70;99.90;;;;;;5025027;28;20034;-78
2023/07/17 11:13:36;;;;;;;10.70;6.32;;;23.60;99.90;;;;;;5011377;28;20101;-79
2023/07/17 11:16:06;;;;;;;6.90;6.15;;;23.60;99.90;;;;;;5011635;28;20022;-80
2023/07/17 11:18:31;;;;;;;7.03;5.40;;;23.60;99.90;;;;;;5009225;28;20087;-80
2023/07/17 11:20:57;;;;;;;8.25;6.30;;;23.50;99.90;;;;;;5010277;28;20437;-79
2023/07/17 11:23:23;;;;;;;12.52;6.72;;;23.40;99.90;;;;;;5009823;28;20026;-79
2023/07/17 11:25:49;;;;;;;10.65;7.10;;;23.30;99.90;;;;;;5011315;28;20034;-79
2023/07/17 11:28:15;;;;;;;7.60;6.15;;;23.20;99.90;;;;;;5010297;28;20051;-80
2023/07/17 11:30:40;;;;;;;10.02;6.03;;;23.10;99.90;;;;;;5005383;28;20042;-79
2023/07/17 11:33:08;;;;;;;6.30;5.68;;;23.00;99.90;;;;;;4991841;28;20026;-80
2023/07/17 11:35:52;;;;;;;7.53;6.82;;;23.00;99.90;;;;;;4991858;28;20072;-80
2023/07/17 11:38:20;;;;;;;8.55;5.88;;;22.90;99.90;;;;;;4990185;28;20560;-79
2023/07/17 11:40:59;;;;;;;7.03;6.05;;;22.80;99.90;;;;;;4990504;28;20037;-80
2023/07/17 11:43:30;;;;;;;6.47;5.88;;;22.70;99.90;;;;;;4991679;28;20030;-79
2023/07/17 11:46:01;;;;;;;7.20;6.50;;;22.70;99.90;;;;;;4975307;28;20027;-79
2023/07/17 11:48:31;;;;;;;7.60;5.72;;;22.60;99.90;;;;;;4991634;28;20025;-77
2023/07/17 11:51:00;;;;;;;11.73;6.75;;;22.50;99.90;;;;;;4998085;28;20093;-78
2023/07/17 11:53:27;;;;;;;6.65;6.05;;;22.40;99.90;;;;;;5009140;28;20026;-77
2023/07/17 11:55:53;;;;;;;6.50;5.93;;;22.40;99.90;;;;;;5008701;28;20046;-77
2023/07/17 11:58:26;;;;;;;6.55;5.95;;;22.30;99.90;;;;;;5008393;28;20075;-77
2023/07/17 12:00:56;;;;;;;7.35;5.70;;;22.20;99.90;;;;;;5010839;28;20344;-77
2023/07/17 12:03:22;;;;;;;6.40;5.90;;;22.20;99.90;;;;;;5011390;28;20428;-78
2023/07/17 12:05:48;;;;;;;7.68;5.95;;;22.10;99.90;;;;;;5011249;28;20026;-78
2023/07/17 12:08:14;;;;;;;7.13;6.43;;;22.00;99.90;;;;;;5009380;28;20479;-78
2023/07/17 12:10:40;;;;;;;6.32;5.82;;;22.00;99.90;;;;;;5009946;28;20520;-78
2023/07/17 12:13:06;;;;;;;6.72;6.00;;;21.90;99.90;;;;;;5007775;28;20022;-78
2023/07/17 12:15:33;;;;;;;7.57;6.07;;;21.80;99.90;;;;;;5008545;28;20028;-78
2023/07/17 12:17:58;;;;;;;8.93;6.50;;;21.80;99.90;;;;;;5008430;28;20034;-78
2023/07/17 12:20:26;;;;;;;7.07;5.78;;;21.70;99.90;;;;;;5007075;28;20026;-78
2023/07/17 12:22:54;;;;;;;6.82;6.15;;;21.80;99.90;;;;;;5007350;28;20021;-78
2023/07/17 12:25:20;;;;;;;9.05;7.00;;;21.70;99.90;;;;;;5008965;28;20113;-78
2023/07/17 12:27:47;;;;;;;7.55;6.80;;;21.50;99.90;;;;;;4993678;28;20105;-78
2023/07/17 12:30:14;;;;;;;8.30;6.72;;;21.40;99.90;;;;;;4990936;28;20433;-78
2023/07/17 12:32:40;;;;;;;7.82;6.90;;;21.30;99.90;;;;;;4991354;28;20022;-78
2023/07/17 12:35:07;;;;;;;8.55;7.72;;;21.30;99.90;;;;;;4991473;28;20022;-78
2023/07/17 12:37:33;;;;;;;8.32;7.45;;;21.20;99.90;;;;;;4990272;28;20019;-78
2023/07/17 12:39:59;;;;;;;9.63;8.02;;;21.20;99.90;;;;;;4991240;28;20046;-78
2023/07/17 12:42:24;;;;;;;7.88;7.07;;;21.20;99.90;;;;;;4991180;28;20093;-78